createdAt,value
2023-05-05T00:00:57.671Z,11.52
2023-05-05T00:01:57.838Z,11.52
2023-05-05T00:02:57.985Z,11.44
2023-05-05T00:03:58.112Z,11.599999
2023-05-05T00:04:58.220Z,11.599999
2023-05-05T00:05:58.335Z,11.52
2023-05-05T00:06:58.481Z,11.52
2023-05-05T00:07:58.629Z,11.599999
2023-05-05T00:08:58.790Z,11.44
2023-05-05T00:09:58.927Z,11.44
2023-05-05T00:10:59.091Z,11.52
2023-05-05T00:11:59.237Z,11.599999
2023-05-05T00:12:59.355Z,11.599999
2023-05-05T00:13:59.493Z,11.599999
2023-05-05T00:14:59.638Z,11.52
2023-05-05T00:15:59.789Z,11.52
2023-05-05T00:16:59.957Z,11.52
2023-05-05T00:18:00.162Z,11.52
2023-05-05T00:19:00.246Z,11.52
2023-05-05T00:20:00.400Z,11.52
2023-05-05T00:21:00.549Z,11.44
2023-05-05T00:22:00.700Z,11.52
2023-05-05T00:23:00.895Z,11.52
2023-05-05T00:24:01.017Z,11.44
2023-05-05T00:25:01.156Z,11.599999
2023-05-05T00:26:01.304Z,11.52
2023-05-05T00:27:01.460Z,11.599999
2023-05-05T00:28:01.609Z,11.599999
2023-05-05T00:29:01.782Z,11.599999
2023-05-05T00:30:01.917Z,11.52
2023-05-05T00:31:02.208Z,11.52
2023-05-05T00:32:02.226Z,11.52
2023-05-05T00:33:02.453Z,11.44
2023-05-05T00:34:02.522Z,11.52
2023-05-05T00:35:02.673Z,11.599999
2023-05-05T00:36:02.841Z,11.599999
2023-05-05T00:37:02.978Z,11.599999
2023-05-05T00:38:03.132Z,11.599999
2023-05-05T00:39:03.278Z,11.52
2023-05-05T00:40:03.432Z,11.44
2023-05-05T00:41:03.538Z,11.599999
2023-05-05T00:42:03.647Z,11.52
2023-05-05T00:43:03.796Z,11.44
2023-05-05T00:44:03.939Z,11.44
2023-05-05T00:45:04.098Z,11.44
2023-05-05T00:46:04.278Z,11.44
2023-05-05T00:47:04.401Z,11.44
2023-05-05T00:48:04.550Z,11.28
2023-05-05T00:49:04.678Z,11.44
2023-05-05T00:50:04.821Z,11.28
2023-05-05T00:51:04.954Z,11.28
2023-05-05T00:52:05.118Z,11.44
2023-05-05T00:53:05.253Z,11.52
2023-05-05T00:54:05.412Z,11.52
2023-05-05T00:55:05.560Z,11.28
2023-05-05T00:56:05.725Z,11.28
2023-05-05T00:57:05.868Z,11.44
2023-05-05T00:58:06.014Z,11.44
2023-05-05T00:59:06.168Z,11.28
2023-05-05T01:00:06.618Z,11.2
2023-05-05T01:01:06.426Z,11.28
2023-05-05T01:02:06.522Z,11.28
2023-05-05T01:03:06.757Z,11.28
2023-05-05T01:04:06.862Z,11.2
2023-05-05T01:05:06.878Z,11.28
2023-05-05T01:06:06.992Z,11.28
2023-05-05T01:07:07.089Z,11.28
2023-05-05T01:08:07.235Z,11.2
2023-05-05T01:09:07.390Z,11.28
2023-05-05T01:10:15.550Z,11.2
2023-05-05T01:11:07.643Z,11.2
2023-05-05T01:12:07.791Z,11.04
2023-05-05T01:13:08.005Z,11.04
2023-05-05T01:14:08.090Z,11.28
2023-05-05T01:15:08.241Z,11.12
2023-05-05T01:16:08.439Z,11.04
2023-05-05T01:17:08.495Z,11.12
2023-05-05T01:18:08.644Z,11.12
2023-05-05T01:19:08.801Z,11.04
2023-05-05T01:20:09.162Z,11.12
2023-05-05T01:21:09.110Z,10.8
2023-05-05T01:22:09.261Z,10.639999
2023-05-05T01:23:09.418Z,10.719999
2023-05-05T01:24:09.558Z,10.88
2023-05-05T01:25:09.722Z,10.32
2023-05-05T01:26:09.859Z,10.4
2023-05-05T01:27:10.011Z,10.48
2023-05-05T01:28:10.165Z,10.08
2023-05-05T01:29:10.316Z,10
2023-05-05T01:30:10.515Z,10.32
2023-05-05T01:31:10.636Z,10.4
2023-05-05T01:32:10.723Z,10.32
2023-05-05T01:33:10.879Z,10.08
2023-05-05T01:34:11.594Z,10.639999
2023-05-05T01:35:11.136Z,10.639999
2023-05-05T01:36:11.650Z,10
2023-05-05T01:37:11.432Z,10.48
2023-05-05T01:38:12.305Z,10.08
2023-05-05T01:39:11.653Z,10.48
2023-05-05T01:40:11.788Z,10.48
2023-05-05T01:41:11.886Z,10.4
2023-05-05T01:42:12.032Z,10.48
2023-05-05T01:43:12.190Z,10.719999
2023-05-05T01:44:12.288Z,10.8
2023-05-05T01:45:12.438Z,10.719999
2023-05-05T01:46:12.635Z,10.88
2023-05-05T01:47:12.740Z,11.12
2023-05-05T01:48:12.891Z,11.2
2023-05-05T01:49:13.008Z,11.2
2023-05-05T01:50:13.144Z,11.12
2023-05-05T01:51:13.295Z,11.12
2023-05-05T01:52:13.454Z,11.04
2023-05-05T01:53:13.609Z,11.12
2023-05-05T01:54:13.705Z,11.04
2023-05-05T01:55:13.862Z,11.2
2023-05-05T01:56:14.007Z,11.44
2023-05-05T01:57:14.157Z,11.2
2023-05-05T01:58:14.321Z,11.2
2023-05-05T01:59:14.466Z,11.2
2023-05-05T02:00:14.613Z,11.28
2023-05-05T02:01:14.785Z,11.52
2023-05-05T02:02:14.881Z,11.2
2023-05-05T02:03:15.025Z,11.12
2023-05-05T02:04:15.119Z,11.12
2023-05-05T02:05:15.223Z,11.04
2023-05-05T02:06:15.389Z,11.04
2023-05-05T02:07:15.536Z,11.04
2023-05-05T02:08:15.673Z,11.04
2023-05-05T02:09:15.825Z,10.8
2023-05-05T02:10:15.979Z,10.8
2023-05-05T02:11:16.143Z,10.88
2023-05-05T02:12:16.294Z,10.8
2023-05-05T02:13:16.493Z,10.8
2023-05-05T02:14:16.538Z,10.8
2023-05-05T02:15:16.696Z,10.719999
2023-05-05T02:16:16.946Z,10.8
2023-05-05T02:17:17.018Z,10.8
2023-05-05T02:18:17.162Z,10.8
2023-05-05T02:19:17.297Z,10.48
2023-05-05T02:20:17.452Z,10.8
2023-05-05T02:21:17.613Z,10.24
2023-05-05T02:22:17.755Z,10.32
2023-05-05T02:23:17.898Z,10.48
2023-05-05T02:24:18.056Z,10.48
2023-05-05T02:25:18.229Z,10.719999
2023-05-05T02:26:18.375Z,10.719999
2023-05-05T02:27:18.512Z,10.719999
2023-05-05T02:28:18.670Z,10.719999
2023-05-05T02:29:18.782Z,10.639999
2023-05-05T02:30:18.979Z,10.48
2023-05-05T02:31:19.178Z,10.719999
2023-05-05T02:32:19.236Z,10.32
2023-05-05T02:33:19.348Z,10.4
2023-05-05T02:34:19.523Z,10.4
2023-05-05T02:35:19.644Z,10.639999
2023-05-05T02:36:19.983Z,10.32
2023-05-05T02:37:19.979Z,10.32
2023-05-05T02:38:20.134Z,10.08
2023-05-05T02:39:20.296Z,10.4
2023-05-05T02:40:20.432Z,10.08
2023-05-05T02:41:20.541Z,10.639999
2023-05-05T02:42:20.709Z,10.24
2023-05-05T02:43:20.874Z,10.08
2023-05-05T02:44:21.012Z,10.48
2023-05-05T02:45:21.145Z,10
2023-05-05T02:46:21.267Z,10
2023-05-05T02:47:21.396Z,9.599999
2023-05-05T02:48:21.544Z,9.679999
2023-05-05T02:49:21.699Z,9.679999
2023-05-05T02:50:21.864Z,10.24
2023-05-05T02:51:21.999Z,10
2023-05-05T02:52:22.154Z,9.84
2023-05-05T02:53:22.306Z,9.52
2023-05-05T02:54:22.415Z,9.28
2023-05-05T02:55:22.557Z,9.36
2023-05-05T02:56:22.708Z,8.88
2023-05-05T02:57:22.860Z,8.72
2023-05-05T02:58:23.012Z,8.639999
2023-05-05T02:59:23.176Z,8.639999
2023-05-05T03:00:23.270Z,8.48
2023-05-05T03:01:23.414Z,8.72
2023-05-05T03:02:23.581Z,9.12
2023-05-05T03:03:23.679Z,9.679999
2023-05-05T03:04:23.723Z,9.52
2023-05-05T03:05:23.881Z,8.88
2023-05-05T03:06:24.032Z,8.639999
2023-05-05T03:07:24.176Z,8.48
2023-05-05T03:08:24.332Z,9.28
2023-05-05T03:09:24.489Z,8.639999
2023-05-05T03:10:24.632Z,8.639999
2023-05-05T03:11:24.732Z,8.4
2023-05-05T03:12:24.884Z,8.08
2023-05-05T03:13:25.040Z,7.92
2023-05-05T03:14:25.198Z,8.32
2023-05-05T03:15:25.343Z,8.24
2023-05-05T03:16:25.513Z,7.92
2023-05-05T03:17:25.642Z,8.08
2023-05-05T03:18:25.752Z,7.92
2023-05-05T03:19:25.855Z,7.84
2023-05-05T03:20:26.009Z,8.24
2023-05-05T03:21:26.108Z,8.8
2023-05-05T03:22:26.251Z,9.2
2023-05-05T03:23:26.405Z,9.28
2023-05-05T03:24:26.592Z,9.36
2023-05-05T03:25:26.711Z,9.04
2023-05-05T03:26:26.808Z,8.4
2023-05-05T03:27:26.961Z,8.4
2023-05-05T03:28:27.065Z,8.48
2023-05-05T03:29:27.230Z,8.32
2023-05-05T03:30:27.367Z,8.72
2023-05-05T03:31:27.518Z,9.12
2023-05-05T03:32:27.640Z,9.28
2023-05-05T03:33:27.720Z,8.4
2023-05-05T03:34:27.881Z,8.24
2023-05-05T03:35:28.059Z,8.24
2023-05-05T03:36:29.323Z,9.12
2023-05-05T03:37:28.325Z,8.639999
2023-05-05T03:38:28.491Z,8.88
2023-05-05T03:39:28.627Z,8.32
2023-05-05T03:40:36.594Z,8.4
2023-05-05T03:41:28.925Z,9.2
2023-05-05T03:42:29.084Z,9.04
2023-05-05T03:43:29.233Z,9.599999
2023-05-05T03:44:29.405Z,9.52
2023-05-05T03:45:29.562Z,9.599999
2023-05-05T03:46:29.696Z,9.599999
2023-05-05T03:47:30.295Z,10
2023-05-05T03:48:29.988Z,9.679999
2023-05-05T03:49:30.144Z,9.52
2023-05-05T03:50:30.302Z,9.679999
2023-05-05T03:51:30.450Z,9.92
2023-05-05T03:52:30.594Z,10
2023-05-05T03:53:31.070Z,9.92
2023-05-05T03:54:30.850Z,9.84
2023-05-05T03:55:31.288Z,9.36
2023-05-05T03:56:31.430Z,8.88
2023-05-05T03:57:31.623Z,9.52
2023-05-05T03:58:31.786Z,9.2
2023-05-05T03:59:31.739Z,9.679999
2023-05-05T04:01:32.028Z,9.92
2023-05-05T04:02:32.375Z,10
2023-05-05T04:03:32.563Z,10.08
2023-05-05T04:04:32.609Z,10.08
2023-05-05T04:05:32.472Z,10.08
2023-05-05T04:06:32.570Z,10.08
2023-05-05T04:07:32.632Z,10.08
2023-05-05T04:08:32.784Z,10.08
2023-05-05T04:09:32.942Z,10.08
2023-05-05T04:10:33.048Z,10.32
2023-05-05T04:11:33.543Z,10.4
2023-05-05T04:12:33.313Z,10.24
2023-05-05T04:13:33.460Z,10.24
2023-05-05T04:14:33.595Z,9.92
2023-05-05T04:15:33.745Z,9.84
2023-05-05T04:16:33.847Z,9.84
2023-05-05T04:17:33.964Z,9.52
2023-05-05T04:18:34.052Z,9.12
2023-05-05T04:19:34.205Z,9.12
2023-05-05T04:20:34.303Z,8.88
2023-05-05T04:21:34.460Z,9.12
2023-05-05T04:22:34.617Z,9.12
2023-05-05T04:23:34.756Z,8.88
2023-05-05T04:24:34.908Z,9.12
2023-05-05T04:25:35.024Z,9.28
2023-05-05T04:26:35.167Z,10.32
2023-05-05T04:27:35.323Z,10.08
2023-05-05T04:28:35.463Z,10
2023-05-05T04:29:35.567Z,10.4
2023-05-05T04:30:35.719Z,10.4
2023-05-05T04:31:35.914Z,10.4
2023-05-05T04:32:36.052Z,10.32
2023-05-05T04:33:36.188Z,10.639999
2023-05-05T04:34:36.328Z,10.719999
2023-05-05T04:35:36.472Z,10.719999
2023-05-05T04:36:36.635Z,10.8
2023-05-05T04:37:36.784Z,11.04
2023-05-05T04:38:36.962Z,10.88
2023-05-05T04:39:37.106Z,11.12
2023-05-05T04:40:37.240Z,11.44
2023-05-05T04:41:37.634Z,11.52
2023-05-05T04:42:37.542Z,11.599999
2023-05-05T04:43:37.710Z,11.599999
2023-05-05T04:44:37.852Z,12
2023-05-05T04:45:37.996Z,12.08
2023-05-05T04:46:38.156Z,12.32
2023-05-05T04:47:38.216Z,12.24
2023-05-05T04:48:38.297Z,12.08
2023-05-05T04:49:38.450Z,12
2023-05-05T04:50:38.601Z,12.24
2023-05-05T04:51:38.758Z,12.32
2023-05-05T04:52:38.902Z,12.32
2023-05-05T04:53:39.020Z,12.4
2023-05-05T04:54:39.161Z,12.32
2023-05-05T04:55:39.262Z,12.4
2023-05-05T04:56:39.414Z,12.24
2023-05-05T04:57:39.568Z,12.4
2023-05-05T04:58:39.716Z,12.639999
2023-05-05T04:59:39.872Z,12.4
2023-05-05T05:00:40.029Z,12.48
2023-05-05T05:01:40.202Z,12.4
2023-05-05T05:02:40.382Z,12.4
2023-05-05T05:03:40.516Z,12.719999
2023-05-05T05:04:40.577Z,12.48
2023-05-05T05:05:40.733Z,12.08
2023-05-05T05:06:40.879Z,12.4
2023-05-05T05:07:41.028Z,13.12
2023-05-05T05:08:41.178Z,13.44
2023-05-05T05:09:41.329Z,13.599999
2023-05-05T05:10:41.492Z,13.679999
2023-05-05T05:11:41.639Z,13.599999
2023-05-05T05:12:41.812Z,13.2
2023-05-05T05:13:41.945Z,13.12
2023-05-05T05:14:42.097Z,13.04
2023-05-05T05:15:42.349Z,13.04
2023-05-05T05:16:42.391Z,13.04
2023-05-05T05:17:42.530Z,13.12
2023-05-05T05:18:42.599Z,12.88
2023-05-05T05:19:42.756Z,13.04
2023-05-05T05:20:42.988Z,13.44
2023-05-05T05:21:43.006Z,13.52
2023-05-05T05:22:43.163Z,13.679999
2023-05-05T05:23:43.292Z,14.24
2023-05-05T05:24:43.414Z,14.48
2023-05-05T05:25:43.569Z,14.719999
2023-05-05T05:26:43.708Z,14.4
2023-05-05T05:27:44.127Z,14.32
2023-05-05T05:28:44.014Z,14
2023-05-05T05:29:44.119Z,14.08
2023-05-05T05:31:44.471Z,14.48
2023-05-05T05:32:44.619Z,14.719999
2023-05-05T05:33:44.725Z,14.719999
2023-05-05T05:34:44.884Z,14.719999
2023-05-05T05:35:45.029Z,14.719999
2023-05-05T05:36:45.194Z,14.88
2023-05-05T05:37:45.332Z,15.04
2023-05-05T05:38:45.481Z,14.799999
2023-05-05T05:39:45.582Z,14.32
2023-05-05T05:40:45.750Z,14.4
2023-05-05T05:41:45.885Z,14
2023-05-05T05:42:46.035Z,13.84
2023-05-05T05:43:46.189Z,14.719999
2023-05-05T05:44:46.344Z,15.599999
2023-05-05T05:45:46.527Z,15.52
2023-05-05T05:46:46.597Z,15.04
2023-05-05T05:47:46.731Z,15.2
2023-05-05T05:48:46.868Z,16.08
2023-05-05T05:49:46.995Z,15.599999
2023-05-05T05:50:47.096Z,15.599999
2023-05-05T05:51:47.250Z,16.24
2023-05-05T05:52:47.414Z,16.4
2023-05-05T05:53:47.568Z,16.48
2023-05-05T05:54:47.706Z,16.32
2023-05-05T05:55:47.868Z,16.24
2023-05-05T05:56:48.007Z,16.64
2023-05-05T05:57:48.125Z,17.12
2023-05-05T05:58:48.283Z,17.04
2023-05-05T05:59:48.371Z,16.8
2023-05-05T06:00:48.523Z,16.88
2023-05-05T06:01:48.685Z,17.12
2023-05-05T06:02:48.896Z,17.12
2023-05-05T06:03:49.020Z,17.04
2023-05-05T06:04:49.123Z,16.8
2023-05-05T06:05:49.228Z,17.12
2023-05-05T06:06:49.375Z,16.64
2023-05-05T06:07:49.528Z,16.64
2023-05-05T06:08:49.626Z,17.04
2023-05-05T06:09:49.774Z,17.2
2023-05-05T06:10:49.878Z,17.04
2023-05-05T06:11:50.085Z,17.04
2023-05-05T06:12:50.209Z,17.12
2023-05-05T06:13:50.339Z,17.28
2023-05-05T06:14:50.447Z,17.52
2023-05-05T06:15:50.628Z,17.2
2023-05-05T06:16:50.740Z,17.6
2023-05-05T06:17:50.857Z,17.28
2023-05-05T06:18:51.011Z,17.52
2023-05-05T06:19:52.432Z,17.68
2023-05-05T06:20:51.310Z,17.76
2023-05-05T06:21:51.447Z,17.6
2023-05-05T06:22:51.599Z,17.52
2023-05-05T06:23:51.761Z,18.24
2023-05-05T06:24:51.908Z,18.4
2023-05-05T06:25:52.053Z,18.32
2023-05-05T06:26:52.207Z,18.08
2023-05-05T06:27:52.357Z,18
2023-05-05T06:28:52.513Z,18.08
2023-05-05T06:29:52.660Z,18.32
2023-05-05T06:30:52.832Z,18.24
2023-05-05T06:31:53.061Z,18.72
2023-05-05T06:32:53.119Z,19.12
2023-05-05T06:33:53.267Z,19.04
2023-05-05T06:34:53.423Z,18.48
2023-05-05T06:35:53.574Z,18.32
2023-05-05T06:36:53.769Z,18.8
2023-05-05T06:37:53.878Z,18.72
2023-05-05T06:38:54.044Z,19.44
2023-05-05T06:39:54.181Z,18.72
2023-05-05T06:40:54.332Z,19.12
2023-05-05T06:41:54.434Z,19.2
2023-05-05T06:42:54.586Z,19.12
2023-05-05T06:43:54.730Z,19.44
2023-05-05T06:44:54.886Z,19.44
2023-05-05T06:45:55.046Z,19.92
2023-05-05T06:46:55.174Z,19.92
2023-05-05T06:47:55.319Z,19.28
2023-05-05T06:48:55.449Z,20.32
2023-05-05T06:49:55.594Z,20.24
2023-05-05T06:50:55.755Z,20.48
2023-05-05T06:51:55.900Z,20.88
2023-05-05T06:52:56.055Z,21.04
2023-05-05T06:53:56.525Z,20.32
2023-05-05T06:54:56.756Z,20
2023-05-05T06:55:56.931Z,20.08
2023-05-05T06:56:59.391Z,20.4
2023-05-05T06:57:57.190Z,20.08
2023-05-05T06:58:57.284Z,20.8
2023-05-05T06:59:57.068Z,20.4
2023-05-05T07:00:57.270Z,20.4
2023-05-05T07:01:57.316Z,20.4
2023-05-05T07:02:57.494Z,20.32
2023-05-05T07:03:57.602Z,21.2
2023-05-05T07:04:57.936Z,21.52
2023-05-05T07:05:57.878Z,21.44
2023-05-05T07:06:57.984Z,21.6
2023-05-05T07:07:58.152Z,21.04
2023-05-05T07:08:58.284Z,21.6
2023-05-05T07:09:58.434Z,21.92
2023-05-05T07:10:58.584Z,21.84
2023-05-05T07:11:58.754Z,22.32
2023-05-05T07:12:58.856Z,22.48
2023-05-05T07:13:59.005Z,23.92
2023-05-05T07:14:59.091Z,23.44
2023-05-05T07:15:59.197Z,22.08
2023-05-05T07:16:59.302Z,22.64
2023-05-05T07:18:00.024Z,23.44
2023-05-05T07:18:59.609Z,23.68
2023-05-05T07:19:59.783Z,23.52
2023-05-05T07:20:59.871Z,23.68
2023-05-05T07:22:00.328Z,24.88
2023-05-05T07:23:00.550Z,24.4
2023-05-05T07:24:00.627Z,24.32
2023-05-05T07:25:00.413Z,24.8
2023-05-05T07:26:01.125Z,24.88
2023-05-05T07:27:01.030Z,24.48
2023-05-05T07:28:01.230Z,24.4
2023-05-05T07:29:01.026Z,23.12
2023-05-05T07:30:01.892Z,24.4
2023-05-05T07:32:01.436Z,24.48
2023-05-05T07:33:01.554Z,23.52
2023-05-05T07:34:01.692Z,24
2023-05-05T07:35:01.787Z,24.88
2023-05-05T07:36:01.926Z,23.52
2023-05-05T07:37:02.083Z,22.32
2023-05-05T07:38:02.249Z,22.64
2023-05-05T07:39:02.382Z,23.2
2023-05-05T07:40:02.544Z,23.6
2023-05-05T07:41:02.690Z,24.64
2023-05-05T07:42:02.841Z,23.92
2023-05-05T07:43:02.987Z,24.32
2023-05-05T07:44:03.136Z,24.48
2023-05-05T07:45:03.306Z,24.64
2023-05-05T07:46:03.483Z,23.28
2023-05-05T07:47:03.590Z,23.44
2023-05-05T07:48:03.811Z,22.24
2023-05-05T07:49:03.900Z,22.64
2023-05-05T07:50:04.008Z,22.24
2023-05-05T07:51:04.153Z,22.32
2023-05-05T07:52:04.301Z,22.8
2023-05-05T07:53:13.458Z,22.8
2023-05-05T07:54:04.600Z,22.8
2023-05-05T07:55:04.901Z,23.84
2023-05-05T07:56:04.907Z,23.28
2023-05-05T07:57:05.059Z,24.32
2023-05-05T07:58:05.175Z,23.6
2023-05-05T07:59:05.285Z,23.12
2023-05-05T08:00:05.485Z,22.8
2023-05-05T08:01:05.526Z,22.32
2023-05-05T08:02:05.643Z,22.64
2023-05-05T08:03:07.144Z,22.24
2023-05-05T08:04:05.908Z,23.28
2023-05-05T08:05:06.185Z,23.04
2023-05-05T08:06:06.176Z,22.72
2023-05-05T08:07:06.341Z,22.72
2023-05-05T08:08:06.716Z,23.6
2023-05-05T08:09:06.829Z,24.32
2023-05-05T08:10:06.929Z,23.04
2023-05-05T08:11:07.083Z,21.84
2023-05-05T08:12:07.250Z,21.6
2023-05-05T08:13:07.421Z,21.44
2023-05-05T08:14:07.490Z,22.32
2023-05-05T08:15:07.975Z,22.24
2023-05-05T08:16:07.888Z,21.92
2023-05-05T08:17:07.942Z,22.24
2023-05-05T08:18:08.113Z,22.08
2023-05-05T08:19:17.828Z,22.72
2023-05-05T08:20:08.404Z,22.4
2023-05-05T08:21:08.582Z,22.4
2023-05-05T08:22:08.712Z,22.24
2023-05-05T08:23:08.852Z,22
2023-05-05T08:24:09.014Z,23.2
2023-05-05T08:25:09.264Z,23.2
2023-05-05T08:26:09.318Z,23.12
2023-05-05T08:27:09.458Z,24
2023-05-05T08:28:09.621Z,23.84
2023-05-05T08:29:09.767Z,24.32
2023-05-05T08:30:09.971Z,24.08
2023-05-05T08:31:10.064Z,26.08
2023-05-05T08:32:10.174Z,26.32
2023-05-05T08:33:10.371Z,25.2
2023-05-05T08:34:10.482Z,26.48
2023-05-05T08:35:10.967Z,26.88
2023-05-05T08:36:10.803Z,26.48
2023-05-05T08:37:10.933Z,26.24
2023-05-05T08:38:11.089Z,25.84
2023-05-05T08:39:11.179Z,26.32
2023-05-05T08:40:11.348Z,26.08
2023-05-05T08:41:11.448Z,24.64
2023-05-05T08:42:11.802Z,23.84
2023-05-05T08:43:11.747Z,25.04
2023-05-05T08:44:11.893Z,26.4
2023-05-05T08:45:12.278Z,26.48
2023-05-05T08:46:12.192Z,26.72
2023-05-05T08:47:12.296Z,28
2023-05-05T08:48:12.458Z,27.84
2023-05-05T08:49:12.605Z,28.64
2023-05-05T08:50:12.745Z,29.84
2023-05-05T08:51:12.915Z,28.8
2023-05-05T08:52:13.069Z,24.8
2023-05-05T08:53:13.255Z,26.08
2023-05-05T08:54:13.303Z,26.4
2023-05-05T08:55:13.454Z,28.48
2023-05-05T08:56:13.618Z,27.92
2023-05-05T08:57:13.762Z,26.24
2023-05-05T08:58:13.926Z,26.32
2023-05-05T08:59:14.063Z,25.84
2023-05-05T09:00:14.844Z,26.64
2023-05-05T09:01:14.425Z,27.92
2023-05-05T09:02:14.557Z,28.64
2023-05-05T09:03:14.739Z,27.92
2023-05-05T09:04:14.774Z,27.52
2023-05-05T09:05:14.945Z,27.84
2023-05-05T09:06:15.083Z,26.88
2023-05-05T09:07:15.229Z,29.6
2023-05-05T09:08:15.374Z,30.08
2023-05-05T09:09:15.533Z,28.72
2023-05-05T09:10:15.678Z,28.08
2023-05-05T09:11:15.790Z,28.32
2023-05-05T09:12:15.953Z,28.4
2023-05-05T09:13:16.135Z,27.2
2023-05-05T09:14:16.234Z,27.04
2023-05-05T09:15:16.394Z,28.8
2023-05-05T09:16:16.565Z,29.28
2023-05-05T09:17:16.642Z,27.84
2023-05-05T09:18:16.814Z,28.48
2023-05-05T09:19:16.901Z,27.52
2023-05-05T09:20:17.045Z,27.44
2023-05-05T09:21:17.208Z,28.8
2023-05-05T09:22:17.353Z,29.12
2023-05-05T09:23:17.515Z,30.8
2023-05-05T09:24:17.652Z,29.92
2023-05-05T09:25:17.820Z,29.92
2023-05-05T09:26:17.918Z,30.4
2023-05-05T09:27:18.112Z,28.88
2023-05-05T09:28:18.215Z,28.48
2023-05-05T09:29:18.364Z,28.64
2023-05-05T09:30:18.541Z,26.88
2023-05-05T09:31:18.683Z,26.64
2023-05-05T09:32:18.833Z,28
2023-05-05T09:33:18.973Z,28.48
2023-05-05T09:34:19.118Z,26.64
2023-05-05T09:35:19.274Z,28.4
2023-05-05T09:36:19.376Z,29.12
2023-05-05T09:37:19.524Z,29.04
2023-05-05T09:38:19.679Z,29.68
2023-05-05T09:39:19.782Z,29.68
2023-05-05T09:40:20.088Z,29.6
2023-05-05T09:41:20.042Z,30.24
2023-05-05T09:42:20.181Z,30.48
2023-05-05T09:43:20.349Z,31.04
2023-05-05T09:44:20.527Z,28.8
2023-05-05T09:45:20.650Z,26.08
2023-05-05T09:46:20.814Z,26.08
2023-05-05T09:47:29.263Z,28.72
2023-05-05T09:48:21.154Z,26.88
2023-05-05T09:49:21.216Z,26.08
2023-05-05T09:50:21.372Z,25.28
2023-05-05T09:51:21.566Z,25.12
2023-05-05T09:52:21.653Z,26
2023-05-05T09:53:21.831Z,27.2
2023-05-05T09:54:21.963Z,26.88
2023-05-05T09:55:22.104Z,28.4
2023-05-05T09:56:22.263Z,29.28
2023-05-05T09:57:22.407Z,29.84
2023-05-05T09:58:22.534Z,29.6
2023-05-05T09:59:22.665Z,27.52
2023-05-05T10:00:22.816Z,27.2
2023-05-05T10:01:22.956Z,27.6
2023-05-05T10:02:23.065Z,28.32
2023-05-05T10:03:23.220Z,28.24
2023-05-05T10:04:23.395Z,30.8
2023-05-05T10:05:23.619Z,31.52
2023-05-05T10:06:23.628Z,29.68
2023-05-05T10:07:23.813Z,29.2
2023-05-05T10:08:23.928Z,29.2
2023-05-05T10:09:24.106Z,30
2023-05-05T10:10:24.228Z,30.08
2023-05-05T10:11:24.378Z,30.08
2023-05-05T10:12:24.530Z,29.28
2023-05-05T10:13:24.703Z,27.92
2023-05-05T10:14:24.841Z,29.2
2023-05-05T10:15:24.985Z,27.6
2023-05-05T10:16:25.926Z,27.92
2023-05-05T10:17:25.254Z,27.92
2023-05-05T10:18:25.484Z,27.28
2023-05-05T10:19:25.599Z,25.84
2023-05-05T10:20:25.696Z,25.84
2023-05-05T10:21:25.846Z,27.52
2023-05-05T10:22:26.005Z,27.28
2023-05-05T10:23:26.164Z,25.84
2023-05-05T10:24:26.299Z,26.32
2023-05-05T10:25:26.410Z,26.08
2023-05-05T10:26:26.564Z,27.04
2023-05-05T10:27:26.716Z,26.64
2023-05-05T10:28:26.866Z,26
2023-05-05T10:29:26.974Z,25.44
2023-05-05T10:30:27.126Z,24.48
2023-05-05T10:31:27.334Z,24.48
2023-05-05T10:32:43.088Z,24.72
2023-05-05T10:33:31.876Z,25.2
2023-05-05T10:34:27.639Z,27.2
2023-05-05T10:35:27.751Z,26.48
2023-05-05T10:36:27.892Z,25.84
2023-05-05T10:37:28.027Z,27.6
2023-05-05T10:38:28.182Z,26.48
2023-05-05T10:39:28.337Z,27.04
2023-05-05T10:40:28.483Z,28
2023-05-05T10:41:28.638Z,28.32
2023-05-05T10:42:28.788Z,25.44
2023-05-05T10:43:28.903Z,25.6
2023-05-05T10:44:29.043Z,26.4
2023-05-05T10:45:29.313Z,26.08
2023-05-05T10:46:29.373Z,27.44
2023-05-05T10:47:29.516Z,27.92
2023-05-05T10:48:29.677Z,29.28
2023-05-05T10:49:29.799Z,28.64
2023-05-05T10:50:29.961Z,29.2
2023-05-05T10:51:39.171Z,29.28
2023-05-05T10:52:30.250Z,27.68
2023-05-05T10:53:30.356Z,26.64
2023-05-05T10:54:30.636Z,26.88
2023-05-05T10:55:30.660Z,28.8
2023-05-05T10:56:30.811Z,28.08
2023-05-05T10:57:30.965Z,28.64
2023-05-05T10:58:31.117Z,28.32
2023-05-05T10:59:31.272Z,27.52
2023-05-05T11:00:31.421Z,26.8
2023-05-05T11:01:31.657Z,26
2023-05-05T11:02:31.762Z,27.44
2023-05-05T11:03:31.901Z,26.72
2023-05-05T11:04:32.026Z,27.04
2023-05-05T11:05:32.207Z,27.52
2023-05-05T11:06:32.328Z,25.6
2023-05-05T11:07:32.485Z,26.08
2023-05-05T11:08:32.595Z,25.92
2023-05-05T11:09:32.729Z,26.88
2023-05-05T11:10:32.887Z,29.28
2023-05-05T11:11:33.033Z,28.88
2023-05-05T11:12:33.208Z,30.32
2023-05-05T11:13:33.291Z,27.84
2023-05-05T11:14:33.394Z,26.88
2023-05-05T11:15:33.576Z,27.2
2023-05-05T11:16:33.678Z,27.92
2023-05-05T11:17:33.840Z,30.4
2023-05-05T11:18:33.955Z,32.4
2023-05-05T11:19:34.147Z,31.6
2023-05-05T11:20:34.306Z,32.88
2023-05-05T11:21:34.454Z,32.4
2023-05-05T11:22:34.612Z,31.04
2023-05-05T11:23:34.710Z,29.2
2023-05-05T11:24:34.872Z,29.68
2023-05-05T11:25:35.021Z,28
2023-05-05T11:26:35.161Z,27.28
2023-05-05T11:27:35.331Z,26.8
2023-05-05T11:28:35.415Z,28
2023-05-05T11:29:35.611Z,29.44
2023-05-05T11:30:35.671Z,29.12
2023-05-05T11:31:35.901Z,28.4
2023-05-05T11:32:36.027Z,28.8
2023-05-05T11:33:36.121Z,28.88
2023-05-05T11:34:36.281Z,28.72
2023-05-05T11:35:36.434Z,30.08
2023-05-05T11:36:36.576Z,30
2023-05-05T11:37:36.738Z,28.24
2023-05-05T11:38:36.890Z,28.24
2023-05-05T11:39:37.041Z,26.64
2023-05-05T11:40:37.135Z,27.28
2023-05-05T11:41:37.284Z,27.2
2023-05-05T11:42:37.441Z,26
2023-05-05T11:43:37.610Z,27.68
2023-05-05T11:44:37.747Z,28.48
2023-05-05T11:45:37.888Z,28
2023-05-05T11:46:38.068Z,27.92
2023-05-05T11:47:38.204Z,28.48
2023-05-05T11:48:38.359Z,29.92
2023-05-05T11:49:38.545Z,31.92
2023-05-05T11:50:38.663Z,32.4
2023-05-05T11:51:38.821Z,31.84
2023-05-05T11:52:38.907Z,32.72
2023-05-05T11:53:39.050Z,32.88
2023-05-05T11:54:39.154Z,32.72
2023-05-05T11:55:39.309Z,32.56
2023-05-05T11:56:39.462Z,30
2023-05-05T11:57:39.656Z,31.04
2023-05-05T11:58:39.761Z,30.8
2023-05-05T11:59:39.907Z,31.28
2023-05-05T12:00:40.065Z,30.88
2023-05-05T12:01:40.218Z,31.92
2023-05-05T12:02:40.496Z,33.12
2023-05-05T12:03:40.568Z,32.48
2023-05-05T12:04:40.647Z,32.8
2023-05-05T12:05:40.770Z,32.08
2023-05-05T12:06:40.931Z,30.24
2023-05-05T12:07:41.100Z,31.12
2023-05-05T12:08:41.255Z,31.12
2023-05-05T12:09:41.333Z,30.64
2023-05-05T12:10:41.480Z,30.08
2023-05-05T12:11:41.636Z,30.08
2023-05-05T12:12:41.756Z,29.52
2023-05-05T12:13:41.884Z,29.92
2023-05-05T12:14:42.037Z,30.4
2023-05-05T12:15:42.188Z,29.6
2023-05-05T12:16:42.390Z,29.2
2023-05-05T12:17:42.608Z,30.4
2023-05-05T12:18:42.597Z,30.48
2023-05-05T12:19:42.750Z,30.8
2023-05-05T12:20:43.160Z,30.72
2023-05-05T12:21:42.956Z,30.8
2023-05-05T12:22:43.101Z,31.68
2023-05-05T12:23:43.671Z,29.28
2023-05-05T12:24:43.824Z,30.08
2023-05-05T12:25:43.570Z,30.48
2023-05-05T12:26:43.678Z,30.48
2023-05-05T12:27:43.762Z,30.88
2023-05-05T12:28:43.934Z,30.4
2023-05-05T12:29:44.079Z,31.04
2023-05-05T12:30:44.180Z,28.64
2023-05-05T12:31:44.356Z,29.6
2023-05-05T12:32:44.560Z,29.92
2023-05-05T12:33:44.524Z,26.88
2023-05-05T12:34:44.672Z,26.8
2023-05-05T12:35:44.822Z,26.08
2023-05-05T12:36:44.979Z,27.44
2023-05-05T12:37:45.126Z,27.6
2023-05-05T12:38:45.277Z,27.84
2023-05-05T12:39:45.384Z,27.04
2023-05-05T12:40:45.530Z,27.2
2023-05-05T12:41:45.638Z,27.12
2023-05-05T12:42:46.386Z,26.88
2023-05-05T12:43:45.898Z,26.8
2023-05-05T12:44:46.050Z,26.64
2023-05-05T12:45:46.218Z,26.08
2023-05-05T12:46:46.398Z,26.48
2023-05-05T12:47:46.515Z,26
2023-05-05T12:48:48.266Z,25.68
2023-05-05T12:49:46.801Z,26.08
2023-05-05T12:50:46.986Z,26.4
2023-05-05T12:51:47.071Z,26.08
2023-05-05T12:52:47.522Z,26.24
2023-05-05T12:53:47.980Z,26.4
2023-05-05T12:54:47.512Z,25.2
2023-05-05T12:55:48.170Z,24.88
2023-05-05T12:56:48.218Z,25.04
2023-05-05T12:57:47.889Z,24.32
2023-05-05T12:58:48.407Z,24.4
2023-05-05T12:59:48.606Z,24.72